sensor_id;sensor_type;location;lat;lon;timestamp;P1;durP1;ratioP1;P2;durP2;ratioP2
44893;SDS011;30625;52.206;21.030;2023-04-03T00:01:21;0.00;;;0.00;;
44893;SDS011;30625;52.206;21.030;2023-04-03T00:03:47;0.00;;;0.00;;
44893;SDS011;30625;52.206;21.030;2023-04-03T00:06:13;0.00;;;0.00;;
44893;SDS011;30625;52.206;21.030;2023-04-03T00:08:39;0.00;;;0.00;;
44893;SDS011;30625;52.206;21.030;2023-04-03T00:11:05;0.00;;;0.00;;
44893;SDS011;30625;52.206;21.030;2023-04-03T00:13:44;0.00;;;0.00;;
44893;SDS011;30625;52.206;21.030;2023-04-03T00:16:11;0.00;;;0.00;;
44893;SDS011;30625;52.206;21.030;2023-04-03T00:18:37;0.00;;;0.00;;
44893;SDS011;30625;52.206;21.030;2023-04-03T00:21:04;0.00;;;0.00;;
44893;SDS011;30625;52.206;21.030;2023-04-03T00:23:30;0.00;;;0.00;;
44893;SDS011;30625;52.206;21.030;2023-04-03T00:25:56;0.25;;;0.15;;
44893;SDS011;30625;52.206;21.030;2023-04-03T00:28:22;0.00;;;0.00;;
44893;SDS011;30625;52.206;21.030;2023-04-03T00:30:49;0.30;;;0.30;;
44893;SDS011;30625;52.206;21.030;2023-04-03T00:33:15;0.00;;;0.00;;
44893;SDS011;30625;52.206;21.030;2023-04-03T00:35:41;0.00;;;0.00;;
44893;SDS011;30625;52.206;21.030;2023-04-03T00:38:07;0.00;;;0.00;;
44893;SDS011;30625;52.206;21.030;2023-04-03T00:40:34;0.00;;;0.00;;
44893;SDS011;30625;52.206;21.030;2023-04-03T00:43:02;0.00;;;0.00;;
44893;SDS011;30625;52.206;21.030;2023-04-03T00:45:43;0.00;;;0.00;;
44893;SDS011;30625;52.206;21.030;2023-04-03T00:48:11;0.00;;;0.00;;
44893;SDS011;30625;52.206;21.030;2023-04-03T00:50:42;0.55;;;0.52;;
44893;SDS011;30625;52.206;21.030;2023-04-03T00:53:11;0.00;;;0.00;;
44893;SDS011;30625;52.206;21.030;2023-04-03T00:55:41;0.00;;;0.00;;
44893;SDS011;30625;52.206;21.030;2023-04-03T00:58:07;0.00;;;0.00;;
44893;SDS011;30625;52.206;21.030;2023-04-03T01:00:36;0.00;;;0.00;;
44893;SDS011;30625;52.206;21.030;2023-04-03T01:03:05;0.00;;;0.00;;
44893;SDS011;30625;52.206;21.030;2023-04-03T01:05:34;0.32;;;0.32;;
44893;SDS011;30625;52.206;21.030;2023-04-03T01:08:00;0.00;;;0.00;;
44893;SDS011;30625;52.206;21.030;2023-04-03T01:10:26;0.00;;;0.00;;
44893;SDS011;30625;52.206;21.030;2023-04-03T01:12:52;0.00;;;0.00;;
44893;SDS011;30625;52.206;21.030;2023-04-03T01:15:24;0.00;;;0.00;;
44893;SDS011;30625;52.206;21.030;2023-04-03T01:17:53;0.00;;;0.00;;
44893;SDS011;30625;52.206;21.030;2023-04-03T01:28:17;0.00;;;0.00;;
44893;SDS011;30625;52.206;21.030;2023-04-03T01:33:40;0.00;;;0.00;;
44893;SDS011;30625;52.206;21.030;2023-04-03T01:36:07;0.00;;;0.00;;
44893;SDS011;30625;52.206;21.030;2023-04-03T01:38:33;0.00;;;0.00;;
44893;SDS011;30625;52.206;21.030;2023-04-03T01:40:59;0.00;;;0.00;;
44893;SDS011;30625;52.206;21.030;2023-04-03T01:46:01;0.00;;;0.00;;
44893;SDS011;30625;52.206;21.030;2023-04-03T01:48:27;0.00;;;0.00;;
44893;SDS011;30625;52.206;21.030;2023-04-03T01:53:19;0.00;;;0.00;;
44893;SDS011;30625;52.206;21.030;2023-04-03T01:55:44;0.00;;;0.00;;
44893;SDS011;30625;52.206;21.030;2023-04-03T01:58:10;0.00;;;0.00;;
44893;SDS011;30625;52.206;21.030;2023-04-03T02:00:36;1.13;;;1.05;;
44893;SDS011;30625;52.206;21.030;2023-04-03T02:03:02;0.00;;;0.00;;
44893;SDS011;30625;52.206;21.030;2023-04-03T02:05:28;0.00;;;0.00;;
44893;SDS011;30625;52.206;21.030;2023-04-03T02:07:53;0.00;;;0.00;;
44893;SDS011;30625;52.206;21.030;2023-04-03T02:10:20;0.00;;;0.00;;
44893;SDS011;30625;52.206;21.030;2023-04-03T02:12:45;0.00;;;0.00;;
44893;SDS011;30625;52.206;21.030;2023-04-03T02:15:11;0.00;;;0.00;;
44893;SDS011;30625;52.206;21.030;2023-04-03T02:17:37;0.00;;;0.00;;
44893;SDS011;30625;52.206;21.030;2023-04-03T02:20:03;0.55;;;0.55;;
44893;SDS011;30625;52.206;21.030;2023-04-03T02:24:54;0.00;;;0.00;;
44893;SDS011;30625;52.206;21.030;2023-04-03T02:27:20;0.00;;;0.00;;
44893;SDS011;30625;52.206;21.030;2023-04-03T02:29:46;0.00;;;0.00;;
44893;SDS011;30625;52.206;21.030;2023-04-03T02:32:11;0.00;;;0.00;;
44893;SDS011;30625;52.206;21.030;2023-04-03T02:34:37;0.00;;;0.00;;
44893;SDS011;30625;52.206;21.030;2023-04-03T02:37:03;0.00;;;0.00;;
44893;SDS011;30625;52.206;21.030;2023-04-03T02:39:29;0.00;;;0.00;;
44893;SDS011;30625;52.206;21.030;2023-04-03T02:41:54;0.00;;;0.00;;
44893;SDS011;30625;52.206;21.030;2023-04-03T02:44:20;0.00;;;0.00;;
44893;SDS011;30625;52.206;21.030;2023-04-03T02:46:46;1.25;;;0.35;;
44893;SDS011;30625;52.206;21.030;2023-04-03T02:49:11;0.00;;;0.00;;
44893;SDS011;30625;52.206;21.030;2023-04-03T02:51:37;0.00;;;0.00;;
44893;SDS011;30625;52.206;21.030;2023-04-03T02:54:03;0.08;;;0.08;;
44893;SDS011;30625;52.206;21.030;2023-04-03T02:56:29;0.00;;;0.00;;
44893;SDS011;30625;52.206;21.030;2023-04-03T02:58:55;0.00;;;0.00;;
44893;SDS011;30625;52.206;21.030;2023-04-03T03:01:20;0.00;;;0.00;;
44893;SDS011;30625;52.206;21.030;2023-04-03T03:03:46;0.00;;;0.00;;
44893;SDS011;30625;52.206;21.030;2023-04-03T03:06:13;0.00;;;0.00;;
44893;SDS011;30625;52.206;21.030;2023-04-03T03:08:39;0.00;;;0.00;;
44893;SDS011;30625;52.206;21.030;2023-04-03T03:13:32;0.00;;;0.00;;
44893;SDS011;30625;52.206;21.030;2023-04-03T03:15:58;0.32;;;0.30;;
44893;SDS011;30625;52.206;21.030;2023-04-03T03:18:24;0.00;;;0.00;;
44893;SDS011;30625;52.206;21.030;2023-04-03T03:20:54;0.00;;;0.00;;
44893;SDS011;30625;52.206;21.030;2023-04-03T03:23:21;0.00;;;0.00;;
44893;SDS011;30625;52.206;21.030;2023-04-03T03:25:49;0.00;;;0.00;;
44893;SDS011;30625;52.206;21.030;2023-04-03T03:28:19;0.00;;;0.00;;
44893;SDS011;30625;52.206;21.030;2023-04-03T03:30:44;0.00;;;0.00;;
44893;SDS011;30625;52.206;21.030;2023-04-03T03:33:10;0.00;;;0.00;;
44893;SDS011;30625;52.206;21.030;2023-04-03T03:35:36;0.00;;;0.00;;
44893;SDS011;30625;52.206;21.030;2023-04-03T03:38:01;0.00;;;0.00;;
44893;SDS011;30625;52.206;21.030;2023-04-03T03:40:27;0.10;;;0.10;;
44893;SDS011;30625;52.206;21.030;2023-04-03T03:42:53;0.00;;;0.00;;
44893;SDS011;30625;52.206;21.030;2023-04-03T03:45:18;0.00;;;0.00;;
44893;SDS011;30625;52.206;21.030;2023-04-03T03:47:44;0.00;;;0.00;;
44893;SDS011;30625;52.206;21.030;2023-04-03T03:50:10;0.55;;;0.45;;
44893;SDS011;30625;52.206;21.030;2023-04-03T03:52:36;0.00;;;0.00;;
44893;SDS011;30625;52.206;21.030;2023-04-03T03:55:02;0.00;;;0.00;;
44893;SDS011;30625;52.206;21.030;2023-04-03T03:57:28;0.03;;;0.00;;
44893;SDS011;30625;52.206;21.030;2023-04-03T03:59:54;0.00;;;0.00;;
44893;SDS011;30625;52.206;21.030;2023-04-03T04:02:20;0.00;;;0.00;;
44893;SDS011;30625;52.206;21.030;2023-04-03T04:04:45;0.00;;;0.00;;
44893;SDS011;30625;52.206;21.030;2023-04-03T04:07:11;0.30;;;0.30;;
44893;SDS011;30625;52.206;21.030;2023-04-03T04:09:37;0.00;;;0.00;;
44893;SDS011;30625;52.206;21.030;2023-04-03T04:12:02;0.00;;;0.00;;
44893;SDS011;30625;52.206;21.030;2023-04-03T04:14:28;0.00;;;0.00;;
44893;SDS011;30625;52.206;21.030;2023-04-03T04:16:54;0.00;;;0.00;;
44893;SDS011;30625;52.206;21.030;2023-04-03T04:19:20;0.00;;;0.00;;
44893;SDS011;30625;52.206;21.030;2023-04-03T04:21:45;0.00;;;0.00;;
44893;SDS011;30625;52.206;21.030;2023-04-03T04:24:11;0.00;;;0.00;;
44893;SDS011;30625;52.206;21.030;2023-04-03T04:26:37;0.00;;;0.00;;
44893;SDS011;30625;52.206;21.030;2023-04-03T04:29:02;0.00;;;0.00;;
44893;SDS011;30625;52.206;21.030;2023-04-03T04:31:28;0.20;;;0.20;;
44893;SDS011;30625;52.206;21.030;2023-04-03T04:33:53;0.00;;;0.00;;
44893;SDS011;30625;52.206;21.030;2023-04-03T04:36:19;0.00;;;0.00;;
44893;SDS011;30625;52.206;21.030;2023-04-03T04:38:45;0.00;;;0.00;;
44893;SDS011;30625;52.206;21.030;2023-04-03T04:41:11;0.00;;;0.00;;
44893;SDS011;30625;52.206;21.030;2023-04-03T04:43:37;0.00;;;0.00;;
44893;SDS011;30625;52.206;21.030;2023-04-03T04:46:11;0.00;;;0.00;;
44893;SDS011;30625;52.206;21.030;2023-04-03T04:48:37;0.00;;;0.00;;
44893;SDS011;30625;52.206;21.030;2023-04-03T04:51:03;0.00;;;0.00;;
44893;SDS011;30625;52.206;21.030;2023-04-03T04:53:28;0.00;;;0.00;;
44893;SDS011;30625;52.206;21.030;2023-04-03T04:55:54;0.00;;;0.00;;
44893;SDS011;30625;52.206;21.030;2023-04-03T04:58:20;0.00;;;0.00;;
44893;SDS011;30625;52.206;21.030;2023-04-03T05:00:46;0.00;;;0.00;;
44893;SDS011;30625;52.206;21.030;2023-04-03T05:03:12;0.00;;;0.00;;
44893;SDS011;30625;52.206;21.030;2023-04-03T05:05:38;0.00;;;0.00;;
44893;SDS011;30625;52.206;21.030;2023-04-03T05:08:04;0.00;;;0.00;;
44893;SDS011;30625;52.206;21.030;2023-04-03T05:10:33;0.00;;;0.00;;
44893;SDS011;30625;52.206;21.030;2023-04-03T05:12:58;0.00;;;0.00;;
44893;SDS011;30625;52.206;21.030;2023-04-03T05:15:24;0.00;;;0.00;;
44893;SDS011;30625;52.206;21.030;2023-04-03T05:17:50;0.00;;;0.00;;
44893;SDS011;30625;52.206;21.030;2023-04-03T05:20:16;0.00;;;0.00;;
44893;SDS011;30625;52.206;21.030;2023-04-03T05:22:42;0.00;;;0.00;;
44893;SDS011;30625;52.206;21.030;2023-04-03T05:25:07;0.47;;;0.45;;
44893;SDS011;30625;52.206;21.030;2023-04-03T05:27:33;0.00;;;0.00;;
44893;SDS011;30625;52.206;21.030;2023-04-03T05:29:59;0.00;;;0.00;;
44893;SDS011;30625;52.206;21.030;2023-04-03T05:32:25;0.00;;;0.00;;
44893;SDS011;30625;52.206;21.030;2023-04-03T05:34:52;0.00;;;0.00;;
44893;SDS011;30625;52.206;21.030;2023-04-03T05:37:18;0.00;;;0.00;;
44893;SDS011;30625;52.206;21.030;2023-04-03T05:39:44;0.47;;;0.47;;
44893;SDS011;30625;52.206;21.030;2023-04-03T05:42:10;0.30;;;0.30;;
44893;SDS011;30625;52.206;21.030;2023-04-03T05:47:02;0.17;;;0.10;;
44893;SDS011;30625;52.206;21.030;2023-04-03T05:49:28;0.00;;;0.00;;
44893;SDS011;30625;52.206;21.030;2023-04-03T05:51:54;0.00;;;0.00;;
44893;SDS011;30625;52.206;21.030;2023-04-03T05:54:23;0.52;;;0.52;;
44893;SDS011;30625;52.206;21.030;2023-04-03T05:56:51;4.78;;;0.98;;
44893;SDS011;30625;52.206;21.030;2023-04-03T05:59:17;0.47;;;0.47;;
44893;SDS011;30625;52.206;21.030;2023-04-03T06:01:43;0.10;;;0.05;;
44893;SDS011;30625;52.206;21.030;2023-04-03T06:04:09;0.00;;;0.00;;
44893;SDS011;30625;52.206;21.030;2023-04-03T06:09:18;0.10;;;0.10;;
44893;SDS011;30625;52.206;21.030;2023-04-03T06:11:45;0.35;;;0.30;;
44893;SDS011;30625;52.206;21.030;2023-04-03T06:14:11;0.00;;;0.00;;
44893;SDS011;30625;52.206;21.030;2023-04-03T06:16:37;0.00;;;0.00;;
44893;SDS011;30625;52.206;21.030;2023-04-03T06:19:04;0.00;;;0.00;;
44893;SDS011;30625;52.206;21.030;2023-04-03T06:21:31;0.00;;;0.00;;
44893;SDS011;30625;52.206;21.030;2023-04-03T06:23:56;0.10;;;0.10;;
44893;SDS011;30625;52.206;21.030;2023-04-03T06:26:22;0.10;;;0.10;;
44893;SDS011;30625;52.206;21.030;2023-04-03T06:28:48;0.05;;;0.05;;
44893;SDS011;30625;52.206;21.030;2023-04-03T06:31:16;0.00;;;0.00;;
44893;SDS011;30625;52.206;21.030;2023-04-03T06:33:42;0.00;;;0.00;;
44893;SDS011;30625;52.206;21.030;2023-04-03T06:36:09;1.30;;;1.08;;
44893;SDS011;30625;52.206;21.030;2023-04-03T06:38:36;0.00;;;0.00;;
44893;SDS011;30625;52.206;21.030;2023-04-03T06:41:02;0.00;;;0.00;;
44893;SDS011;30625;52.206;21.030;2023-04-03T06:43:28;0.57;;;0.52;;
44893;SDS011;30625;52.206;21.030;2023-04-03T06:45:54;0.00;;;0.00;;
44893;SDS011;30625;52.206;21.030;2023-04-03T06:48:19;0.00;;;0.00;;
44893;SDS011;30625;52.206;21.030;2023-04-03T06:50:45;0.00;;;0.00;;
44893;SDS011;30625;52.206;21.030;2023-04-03T06:53:11;0.10;;;0.10;;
44893;SDS011;30625;52.206;21.030;2023-04-03T06:55:37;0.15;;;0.10;;
44893;SDS011;30625;52.206;21.030;2023-04-03T06:58:03;0.10;;;0.10;;
44893;SDS011;30625;52.206;21.030;2023-04-03T07:00:29;0.10;;;0.10;;
44893;SDS011;30625;52.206;21.030;2023-04-03T07:02:55;2.00;;;0.75;;
44893;SDS011;30625;52.206;21.030;2023-04-03T07:05:23;0.05;;;0.00;;
44893;SDS011;30625;52.206;21.030;2023-04-03T07:07:51;0.00;;;0.00;;
44893;SDS011;30625;52.206;21.030;2023-04-03T07:10:18;0.00;;;0.00;;
44893;SDS011;30625;52.206;21.030;2023-04-03T07:12:43;0.00;;;0.00;;
44893;SDS011;30625;52.206;21.030;2023-04-03T07:15:10;0.10;;;0.10;;
44893;SDS011;30625;52.206;21.030;2023-04-03T07:17:37;0.00;;;0.00;;
44893;SDS011;30625;52.206;21.030;2023-04-03T07:20:03;0.00;;;0.00;;
44893;SDS011;30625;52.206;21.030;2023-04-03T07:22:29;0.00;;;0.00;;
44893;SDS011;30625;52.206;21.030;2023-04-03T07:24:58;0.00;;;0.00;;
44893;SDS011;30625;52.206;21.030;2023-04-03T07:27:24;0.00;;;0.00;;
44893;SDS011;30625;52.206;21.030;2023-04-03T07:32:48;0.00;;;0.00;;
44893;SDS011;30625;52.206;21.030;2023-04-03T07:35:14;0.00;;;0.00;;
44893;SDS011;30625;52.206;21.030;2023-04-03T07:37:41;0.85;;;0.85;;
44893;SDS011;30625;52.206;21.030;2023-04-03T07:40:07;0.00;;;0.00;;
44893;SDS011;30625;52.206;21.030;2023-04-03T07:42:33;0.00;;;0.00;;
44893;SDS011;30625;52.206;21.030;2023-04-03T07:47:26;0.00;;;0.00;;
44893;SDS011;30625;52.206;21.030;2023-04-03T07:49:51;0.93;;;0.45;;
44893;SDS011;30625;52.206;21.030;2023-04-03T07:54:43;0.00;;;0.00;;
44893;SDS011;30625;52.206;21.030;2023-04-03T07:57:09;3.85;;;0.95;;
44893;SDS011;30625;52.206;21.030;2023-04-03T07:59:34;5.43;;;1.20;;
44893;SDS011;30625;52.206;21.030;2023-04-03T08:02:00;6.18;;;1.20;;
44893;SDS011;30625;52.206;21.030;2023-04-03T08:04:26;4.50;;;1.10;;
44893;SDS011;30625;52.206;21.030;2023-04-03T08:06:52;5.70;;;1.30;;
44893;SDS011;30625;52.206;21.030;2023-04-03T08:09:18;3.90;;;1.25;;
44893;SDS011;30625;52.206;21.030;2023-04-03T08:11:44;3.13;;;0.88;;
44893;SDS011;30625;52.206;21.030;2023-04-03T08:16:41;4.93;;;1.40;;
44893;SDS011;30625;52.206;21.030;2023-04-03T08:19:13;3.40;;;1.05;;
44893;SDS011;30625;52.206;21.030;2023-04-03T08:21:44;11.95;;;2.00;;
44893;SDS011;30625;52.206;21.030;2023-04-03T08:24:11;4.32;;;1.27;;
44893;SDS011;30625;52.206;21.030;2023-04-03T08:26:37;5.15;;;1.20;;
44893;SDS011;30625;52.206;21.030;2023-04-03T08:29:03;6.07;;;1.50;;
44893;SDS011;30625;52.206;21.030;2023-04-03T08:31:29;4.40;;;1.10;;
44893;SDS011;30625;52.206;21.030;2023-04-03T08:33:56;2.88;;;0.88;;
44893;SDS011;30625;52.206;21.030;2023-04-03T08:36:24;4.63;;;1.00;;
44893;SDS011;30625;52.206;21.030;2023-04-03T08:38:51;4.32;;;1.02;;
44893;SDS011;30625;52.206;21.030;2023-04-03T08:41:20;5.45;;;1.60;;
44893;SDS011;30625;52.206;21.030;2023-04-03T08:49:49;7.65;;;1.60;;
44893;SDS011;30625;52.206;21.030;2023-04-03T08:52:20;2.70;;;1.08;;
44893;SDS011;30625;52.206;21.030;2023-04-03T08:54:55;5.57;;;1.23;;
44893;SDS011;30625;52.206;21.030;2023-04-03T08:57:33;3.33;;;0.95;;
44893;SDS011;30625;52.206;21.030;2023-04-03T09:00:07;6.13;;;1.50;;
44893;SDS011;30625;52.206;21.030;2023-04-03T09:05:14;5.82;;;1.10;;
44893;SDS011;30625;52.206;21.030;2023-04-03T09:07:46;9.80;;;1.13;;
44893;SDS011;30625;52.206;21.030;2023-04-03T09:10:15;9.80;;;1.48;;
44893;SDS011;30625;52.206;21.030;2023-04-03T09:13:49;5.95;;;1.20;;
44893;SDS011;30625;52.206;21.030;2023-04-03T09:16:04;3.63;;;0.98;;
44893;SDS011;30625;52.206;21.030;2023-04-03T09:27:41;8.13;;;1.65;;
44893;SDS011;30625;52.206;21.030;2023-04-03T09:30:29;8.82;;;1.50;;
44893;SDS011;30625;52.206;21.030;2023-04-03T09:32:55;3.63;;;0.90;;
44893;SDS011;30625;52.206;21.030;2023-04-03T09:35:34;3.58;;;0.90;;
44893;SDS011;30625;52.206;21.030;2023-04-03T09:40:42;2.92;;;1.08;;
44893;SDS011;30625;52.206;21.030;2023-04-03T09:43:25;2.55;;;0.73;;
44893;SDS011;30625;52.206;21.030;2023-04-03T09:45:54;5.50;;;1.02;;
44893;SDS011;30625;52.206;21.030;2023-04-03T09:48:22;5.38;;;1.00;;
44893;SDS011;30625;52.206;21.030;2023-04-03T09:53:37;4.22;;;0.90;;
44893;SDS011;30625;52.206;21.030;2023-04-03T09:58:43;15.80;;;1.83;;
44893;SDS011;30625;52.206;21.030;2023-04-03T10:06:32;4.28;;;1.25;;
44893;SDS011;30625;52.206;21.030;2023-04-03T10:09:05;6.13;;;0.88;;
44893;SDS011;30625;52.206;21.030;2023-04-03T10:12:02;2.10;;;0.60;;
44893;SDS011;30625;52.206;21.030;2023-04-03T10:14:39;2.63;;;0.85;;
44893;SDS011;30625;52.206;21.030;2023-04-03T10:20:15;6.40;;;1.52;;
44893;SDS011;30625;52.206;21.030;2023-04-03T10:23:17;7.18;;;1.05;;
44893;SDS011;30625;52.206;21.030;2023-04-03T10:34:48;3.40;;;0.80;;
44893;SDS011;30625;52.206;21.030;2023-04-03T10:38:27;3.60;;;0.60;;
44893;SDS011;30625;52.206;21.030;2023-04-03T10:40:43;4.32;;;0.68;;
44893;SDS011;30625;52.206;21.030;2023-04-03T10:46:00;6.38;;;1.13;;
44893;SDS011;30625;52.206;21.030;2023-04-03T10:51:50;5.32;;;0.93;;
44893;SDS011;30625;52.206;21.030;2023-04-03T10:54:26;3.58;;;0.82;;
44893;SDS011;30625;52.206;21.030;2023-04-03T10:57:05;3.60;;;0.70;;
44893;SDS011;30625;52.206;21.030;2023-04-03T10:59:38;3.83;;;0.65;;
44893;SDS011;30625;52.206;21.030;2023-04-03T11:05:01;4.18;;;0.90;;
44893;SDS011;30625;52.206;21.030;2023-04-03T11:07:33;2.88;;;0.75;;
44893;SDS011;30625;52.206;21.030;2023-04-03T11:10:17;2.83;;;0.70;;
44893;SDS011;30625;52.206;21.030;2023-04-03T11:13:17;5.30;;;0.88;;
44893;SDS011;30625;52.206;21.030;2023-04-03T11:15:48;2.50;;;0.65;;
44893;SDS011;30625;52.206;21.030;2023-04-03T11:18:21;5.53;;;0.82;;
44893;SDS011;30625;52.206;21.030;2023-04-03T11:21:02;3.60;;;0.98;;
44893;SDS011;30625;52.206;21.030;2023-04-03T11:23:33;2.67;;;0.63;;
44893;SDS011;30625;52.206;21.030;2023-04-03T11:26:06;2.25;;;0.70;;
44893;SDS011;30625;52.206;21.030;2023-04-03T11:28:37;4.05;;;0.80;;
44893;SDS011;30625;52.206;21.030;2023-04-03T11:31:08;4.30;;;0.80;;
44893;SDS011;30625;52.206;21.030;2023-04-03T11:36:44;7.55;;;1.70;;
44893;SDS011;30625;52.206;21.030;2023-04-03T11:39:19;4.15;;;0.90;;
44893;SDS011;30625;52.206;21.030;2023-04-03T11:41:54;5.35;;;1.33;;
44893;SDS011;30625;52.206;21.030;2023-04-03T11:46:57;3.47;;;0.80;;
44893;SDS011;30625;52.206;21.030;2023-04-03T12:16:06;6.57;;;1.30;;
44893;SDS011;30625;52.206;21.030;2023-04-03T12:21:20;2.47;;;0.55;;
44893;SDS011;30625;52.206;21.030;2023-04-03T12:29:14;3.30;;;0.70;;
44893;SDS011;30625;52.206;21.030;2023-04-03T12:31:50;5.47;;;1.00;;
44893;SDS011;30625;52.206;21.030;2023-04-03T12:34:50;5.63;;;1.90;;
44893;SDS011;30625;52.206;21.030;2023-04-03T12:48:29;3.10;;;0.70;;
44893;SDS011;30625;52.206;21.030;2023-04-03T12:50:57;5.35;;;0.90;;
44893;SDS011;30625;52.206;21.030;2023-04-03T12:53:33;4.35;;;1.13;;
44893;SDS011;30625;52.206;21.030;2023-04-03T12:58:46;2.60;;;0.68;;
44893;SDS011;30625;52.206;21.030;2023-04-03T13:01:24;4.43;;;1.05;;
44893;SDS011;30625;52.206;21.030;2023-04-03T13:03:54;3.00;;;0.63;;
44893;SDS011;30625;52.206;21.030;2023-04-03T13:06:27;4.50;;;1.05;;
44893;SDS011;30625;52.206;21.030;2023-04-03T13:09:28;3.30;;;1.00;;
44893;SDS011;30625;52.206;21.030;2023-04-03T13:14:27;4.53;;;0.90;;
44893;SDS011;30625;52.206;21.030;2023-04-03T13:17:10;7.25;;;1.13;;
44893;SDS011;30625;52.206;21.030;2023-04-03T13:19:39;2.75;;;0.85;;
44893;SDS011;30625;52.206;21.030;2023-04-03T13:25:21;4.60;;;0.70;;
44893;SDS011;30625;52.206;21.030;2023-04-03T13:27:49;5.25;;;1.10;;
44893;SDS011;30625;52.206;21.030;2023-04-03T13:30:23;7.10;;;1.23;;
44893;SDS011;30625;52.206;21.030;2023-04-03T13:32:49;3.05;;;0.80;;
44893;SDS011;30625;52.206;21.030;2023-04-03T13:35:35;2.78;;;0.60;;
44893;SDS011;30625;52.206;21.030;2023-04-03T13:38:05;3.90;;;0.73;;
44893;SDS011;30625;52.206;21.030;2023-04-03T13:40:51;6.75;;;1.10;;
44893;SDS011;30625;52.206;21.030;2023-04-03T13:43:26;2.80;;;0.70;;
44893;SDS011;30625;52.206;21.030;2023-04-03T13:45:54;7.72;;;1.95;;
44893;SDS011;30625;52.206;21.030;2023-04-03T13:48:20;5.50;;;1.23;;
44893;SDS011;30625;52.206;21.030;2023-04-03T13:51:22;9.68;;;1.45;;
44893;SDS011;30625;52.206;21.030;2023-04-03T13:56:19;8.93;;;1.40;;
44893;SDS011;30625;52.206;21.030;2023-04-03T14:01:32;2.80;;;0.73;;
44893;SDS011;30625;52.206;21.030;2023-04-03T14:04:09;5.95;;;0.70;;
44893;SDS011;30625;52.206;21.030;2023-04-03T14:06:43;4.60;;;1.10;;
44893;SDS011;30625;52.206;21.030;2023-04-03T14:09:10;3.17;;;0.80;;
44893;SDS011;30625;52.206;21.030;2023-04-03T14:11:36;2.92;;;0.80;;
44893;SDS011;30625;52.206;21.030;2023-04-03T14:14:03;10.82;;;1.30;;
44893;SDS011;30625;52.206;21.030;2023-04-03T14:16:38;5.07;;;1.63;;
44893;SDS011;30625;52.206;21.030;2023-04-03T14:19:06;3.20;;;0.63;;
44893;SDS011;30625;52.206;21.030;2023-04-03T14:21:32;2.22;;;0.63;;
44893;SDS011;30625;52.206;21.030;2023-04-03T14:23:58;2.60;;;0.60;;
44893;SDS011;30625;52.206;21.030;2023-04-03T14:26:24;3.03;;;0.70;;
44893;SDS011;30625;52.206;21.030;2023-04-03T14:28:53;3.88;;;0.90;;
44893;SDS011;30625;52.206;21.030;2023-04-03T14:31:20;5.95;;;0.80;;
44893;SDS011;30625;52.206;21.030;2023-04-03T14:33:47;5.13;;;1.05;;
44893;SDS011;30625;52.206;21.030;2023-04-03T14:38:43;2.22;;;0.60;;
44893;SDS011;30625;52.206;21.030;2023-04-03T14:41:13;5.10;;;1.00;;
44893;SDS011;30625;52.206;21.030;2023-04-03T14:43:40;5.80;;;1.00;;
44893;SDS011;30625;52.206;21.030;2023-04-03T14:46:14;5.05;;;0.70;;
44893;SDS011;30625;52.206;21.030;2023-04-03T14:48:43;2.22;;;0.60;;
44893;SDS011;30625;52.206;21.030;2023-04-03T14:53:44;3.50;;;0.55;;
44893;SDS011;30625;52.206;21.030;2023-04-03T14:56:13;2.85;;;0.85;;
44893;SDS011;30625;52.206;21.030;2023-04-03T14:58:43;2.22;;;0.65;;
44893;SDS011;30625;52.206;21.030;2023-04-03T15:01:12;4.20;;;1.02;;
44893;SDS011;30625;52.206;21.030;2023-04-03T15:03:39;3.00;;;0.50;;
44893;SDS011;30625;52.206;21.030;2023-04-03T15:06:05;3.33;;;1.10;;
44893;SDS011;30625;52.206;21.030;2023-04-03T15:08:31;5.75;;;0.80;;
44893;SDS011;30625;52.206;21.030;2023-04-03T15:10:57;5.68;;;1.00;;
44893;SDS011;30625;52.206;21.030;2023-04-03T15:13:23;4.30;;;1.15;;
44893;SDS011;30625;52.206;21.030;2023-04-03T15:15:50;7.10;;;0.90;;
44893;SDS011;30625;52.206;21.030;2023-04-03T15:18:18;2.58;;;0.63;;
44893;SDS011;30625;52.206;21.030;2023-04-03T15:20:48;7.93;;;1.00;;
44893;SDS011;30625;52.206;21.030;2023-04-03T15:23:14;4.13;;;0.68;;
44893;SDS011;30625;52.206;21.030;2023-04-03T15:25:45;5.15;;;0.88;;
44893;SDS011;30625;52.206;21.030;2023-04-03T15:28:45;7.72;;;1.00;;
44893;SDS011;30625;52.206;21.030;2023-04-03T15:31:05;6.05;;;0.93;;
44893;SDS011;30625;52.206;21.030;2023-04-03T15:33:32;3.42;;;0.98;;
44893;SDS011;30625;52.206;21.030;2023-04-03T15:35:59;3.95;;;0.93;;
44893;SDS011;30625;52.206;21.030;2023-04-03T15:38:25;2.95;;;0.80;;
44893;SDS011;30625;52.206;21.030;2023-04-03T15:40:50;4.00;;;0.90;;
44893;SDS011;30625;52.206;21.030;2023-04-03T15:43:16;3.67;;;1.00;;
44893;SDS011;30625;52.206;21.030;2023-04-03T15:45:42;4.10;;;0.90;;
44893;SDS011;30625;52.206;21.030;2023-04-03T15:48:09;2.83;;;0.88;;
44893;SDS011;30625;52.206;21.030;2023-04-03T15:50:36;3.72;;;0.60;;
44893;SDS011;30625;52.206;21.030;2023-04-03T15:53:02;3.30;;;0.80;;
44893;SDS011;30625;52.206;21.030;2023-04-03T15:55:29;2.38;;;0.63;;
44893;SDS011;30625;52.206;21.030;2023-04-03T15:57:56;4.50;;;0.90;;
44893;SDS011;30625;52.206;21.030;2023-04-03T16:02:50;1.73;;;0.50;;
44893;SDS011;30625;52.206;21.030;2023-04-03T16:05:29;4.10;;;0.85;;
44893;SDS011;30625;52.206;21.030;2023-04-03T16:10:22;7.32;;;0.90;;
44893;SDS011;30625;52.206;21.030;2023-04-03T16:12:47;3.28;;;0.80;;
44893;SDS011;30625;52.206;21.030;2023-04-03T16:15:13;2.97;;;1.00;;
44893;SDS011;30625;52.206;21.030;2023-04-03T16:17:39;5.93;;;0.80;;
44893;SDS011;30625;52.206;21.030;2023-04-03T16:20:08;4.53;;;1.15;;
44893;SDS011;30625;52.206;21.030;2023-04-03T16:22:35;4.10;;;0.73;;
44893;SDS011;30625;52.206;21.030;2023-04-03T16:25:02;2.60;;;0.85;;
44893;SDS011;30625;52.206;21.030;2023-04-03T16:27:29;2.85;;;0.80;;
44893;SDS011;30625;52.206;21.030;2023-04-03T16:29:56;2.85;;;0.88;;
44893;SDS011;30625;52.206;21.030;2023-04-03T16:32:22;5.22;;;0.95;;
44893;SDS011;30625;52.206;21.030;2023-04-03T16:34:51;3.13;;;0.80;;
44893;SDS011;30625;52.206;21.030;2023-04-03T16:37:16;5.57;;;1.02;;
44893;SDS011;30625;52.206;21.030;2023-04-03T16:39:43;6.07;;;1.00;;
44893;SDS011;30625;52.206;21.030;2023-04-03T16:42:08;5.88;;;1.00;;
44893;SDS011;30625;52.206;21.030;2023-04-03T16:44:35;3.60;;;0.90;;
44893;SDS011;30625;52.206;21.030;2023-04-03T16:47:01;4.20;;;0.90;;
44893;SDS011;30625;52.206;21.030;2023-04-03T16:51:59;4.75;;;0.90;;
44893;SDS011;30625;52.206;21.030;2023-04-03T16:54:26;4.22;;;1.10;;
44893;SDS011;30625;52.206;21.030;2023-04-03T16:59:17;4.32;;;1.00;;
44893;SDS011;30625;52.206;21.030;2023-04-03T17:04:09;3.60;;;0.88;;
44893;SDS011;30625;52.206;21.030;2023-04-03T17:06:35;4.97;;;0.95;;
44893;SDS011;30625;52.206;21.030;2023-04-03T17:09:01;5.53;;;1.15;;
44893;SDS011;30625;52.206;21.030;2023-04-03T17:11:27;3.38;;;0.90;;
44893;SDS011;30625;52.206;21.030;2023-04-03T17:13:54;4.32;;;1.33;;
44893;SDS011;30625;52.206;21.030;2023-04-03T17:16:20;5.72;;;1.20;;
44893;SDS011;30625;52.206;21.030;2023-04-03T17:21:12;3.25;;;1.05;;
44893;SDS011;30625;52.206;21.030;2023-04-03T17:23:39;4.60;;;1.50;;
44893;SDS011;30625;52.206;21.030;2023-04-03T17:26:07;4.45;;;1.30;;
44893;SDS011;30625;52.206;21.030;2023-04-03T17:28:33;4.22;;;1.10;;
44893;SDS011;30625;52.206;21.030;2023-04-03T17:31:00;3.03;;;0.90;;
44893;SDS011;30625;52.206;21.030;2023-04-03T17:33:27;5.25;;;0.98;;
44893;SDS011;30625;52.206;21.030;2023-04-03T17:35:58;3.95;;;1.20;;